Time;durP1;ratioP1;P1;durP2;ratioP2;P2;SDS_P1;SDS_P2;PMS_P1;PMS_P2;Temp;Humidity;BMP_temperature;BMP_pressure;BME280_temperature;BME280_humidity;BME280_pressure;Samples;Min_cycle;Max_cycle;Signal;HPM_P1;HPM_P2
2022/06/02 00:01:29;;;;;;;3.85;3.55;;;;;;;16.84;87.52;99262.66;1752551;81;21037;-70
2022/06/02 00:04:18;;;;;;;5.33;3.95;;;;;;;16.79;87.16;99267.84;1764730;81;21200;-71
2022/06/02 00:07:06;;;;;;;4.42;4.12;;;;;;;16.78;87.54;99261.64;1773051;81;20999;-72
2022/06/02 00:09:41;;;;;;;4.65;4.15;;;;;;;16.82;87.96;99265.53;1752781;81;21462;-73
2022/06/02 00:12:31;;;;;;;5.30;4.80;;;;;;;16.87;88.14;99271.09;1743695;81;20994;-71
2022/06/02 00:15:19;;;;;;;5.35;4.95;;;;;;;16.91;88.32;99269.63;1743744;81;21630;-70
2022/06/02 00:18:29;;;;;;;4.17;3.87;;;;;;;16.98;88.57;99271.75;1763426;81;21137;-71
2022/06/02 00:21:04;;;;;;;5.78;4.90;;;;;;;17.03;88.65;99263.86;1764071;79;20916;-72
2022/06/02 00:23:40;;;;;;;4.35;3.95;;;;;;;17.00;88.37;99268.32;1763682;81;20951;-72
2022/06/02 00:26:30;;;;;;;4.00;3.50;;;;;;;16.97;88.25;99264.72;1773242;81;20912;-73
2022/06/02 00:29:13;;;;;;;6.55;5.15;;;;;;;16.90;87.51;99273.34;1772286;81;21058;-71
2022/06/02 00:32:16;;;;;;;6.08;4.70;;;;;;;16.80;86.97;99273.51;1744112;81;21096;-71
2022/06/02 00:34:57;;;;;;;19.20;6.42;;;;;;;16.71;86.85;99268.09;1769548;81;20884;-72
2022/06/02 00:37:32;;;;;;;6.08;5.58;;;;;;;16.58;86.94;99264.96;1772837;80;20845;-70
2022/06/02 00:39:58;;;;;;;7.50;4.85;;;;;;;16.49;87.47;99264.34;1758634;80;21627;-70
2022/06/02 00:43:20;;;;;;;3.62;3.33;;;;;;;16.49;88.06;99271.05;1751198;81;21469;-70
2022/06/02 00:45:53;;;;;;;2.50;2.20;;;;;;;16.51;88.29;99270.83;1767091;81;21150;-69
2022/06/02 00:48:39;;;;;;;1.82;1.72;;;;;;;16.47;89.10;99266.94;1773398;81;21528;-69
2022/06/02 00:51:08;;;;;;;2.83;2.05;;;;;;;16.46;89.63;99267.45;1765894;80;20888;-70
2022/06/02 00:57:41;;;;;;;10.32;2.87;;;;;;;16.52;90.61;99255.03;1759874;80;20875;-70
2022/06/02 01:00:15;;;;;;;20.85;3.70;;;;;;;16.56;91.20;99259.78;1785562;80;21171;-69
2022/06/02 01:03:07;;;;;;;5.20;3.50;;;;;;;16.59;91.91;99259.88;1782298;79;20863;-70
2022/06/02 01:05:39;;;;;;;4.33;3.60;;;;;;;16.61;92.20;99258.62;1774017;80;20883;-69
2022/06/02 01:08:39;;;;;;;5.90;2.72;;;;;;;16.64;92.57;99255.52;1782352;80;20963;-69
2022/06/02 01:11:40;;;;;;;3.60;3.40;;;;;;;16.68;92.62;99253.23;1759707;80;20883;-70
2022/06/02 01:14:45;;;;;;;4.00;3.40;;;;;;;16.70;92.81;99248.47;1784363;80;21154;-69
2022/06/02 01:17:37;;;;;;;4.45;2.50;;;;;;;16.73;92.89;99252.06;1759381;80;20942;-69
2022/06/02 01:20:12;;;;;;;2.45;2.33;;;;;;;16.71;92.85;99246.61;1759811;80;20983;-70
2022/06/02 01:23:21;;;;;;;4.33;2.40;;;;;;;16.68;92.79;99243.84;1768537;80;21587;-70
2022/06/02 01:26:30;;;;;;;2.25;2.15;;;;;;;16.67;92.64;99248.89;1778289;80;21587;-69
2022/06/02 01:29:33;;;;;;;2.33;2.22;;;;;;;16.61;92.06;99244.36;1786547;80;21156;-71
2022/06/02 01:32:18;;;;;;;2.77;2.58;;;;;;;16.59;92.05;99251.81;1759640;80;20883;-70
2022/06/02 01:35:11;;;;;;;3.00;2.80;;;;;;;16.60;92.14;99261.53;1766563;80;21418;-70
2022/06/02 01:37:55;;;;;;;2.77;2.67;;;;;;;16.63;92.14;99251.17;1782076;80;20918;-70
2022/06/02 01:40:39;;;;;;;3.17;2.98;;;;;;;16.64;92.04;99246.11;1784745;80;20962;-70
2022/06/02 01:43:17;;;;;;;3.47;3.27;;;;;;;16.66;91.97;99255.28;1789774;80;21256;-69
2022/06/02 01:46:09;;;;;;;3.42;3.22;;;;;;;16.65;91.72;99257.17;1768215;80;20926;-69
2022/06/02 01:48:53;;;;;;;3.60;3.40;;;;;;;16.67;91.79;99258.29;1759728;80;20923;-70
2022/06/02 01:51:41;;;;;;;5.05;4.50;;;;;;;16.68;91.93;99251.89;1759829;80;20927;-70
2022/06/02 01:54:28;;;;;;;4.58;4.17;;;;;;;16.72;92.08;99254.95;1738670;79;21053;-69
2022/06/02 01:57:14;;;;;;;5.72;5.05;;;;;;;16.77;92.13;99253.78;1743771;81;21834;-70
2022/06/02 02:00:08;;;;;;;5.33;4.92;;;;;;;16.81;92.15;99255.84;1763947;81;20916;-71
2022/06/02 02:03:21;;;;;;;4.70;4.35;;;;;;;16.86;92.13;99261.39;1762798;79;21485;-70
2022/06/02 02:06:16;;;;;;;4.92;4.50;;;;;;;16.92;92.16;99263.20;1747171;81;20966;-69
2022/06/02 02:08:55;;;;;;;5.05;4.75;;;;;;;16.97;92.10;99258.00;1764373;81;20856;-70
2022/06/02 02:11:34;;;;;;;4.65;4.25;;;;;;;17.05;92.02;99255.05;1772873;80;21571;-70
2022/06/02 02:14:41;;;;;;;5.20;4.80;;;;;;;17.12;91.98;99255.03;1769788;80;20934;-70
2022/06/02 02:17:30;;;;;;;4.10;3.70;;;;;;;17.19;91.94;99259.83;1766284;81;20840;-70
2022/06/02 02:20:38;;;;;;;4.10;3.80;;;;;;;17.22;91.38;99268.28;1773090;79;20920;-70
2022/06/02 02:23:26;;;;;;;4.65;4.35;;;;;;;17.14;90.63;99268.55;1769548;81;20908;-70
2022/06/02 02:26:13;;;;;;;5.33;4.92;;;;;;;17.11;90.21;99264.95;1751642;81;21090;-70
2022/06/02 02:29:30;;;;;;;4.70;4.40;;;;;;;17.11;89.94;99267.63;1755304;81;20975;-70
2022/06/02 02:32:17;;;;;;;4.40;3.93;;;;;;;17.15;89.83;99270.17;1710164;82;20950;-70
2022/06/02 02:35:23;;;;;;;4.55;4.25;;;;;;;17.18;89.81;99265.72;1694016;82;21047;-71
2022/06/02 02:38:07;;;;;;;4.70;4.40;;;;;;;17.23;89.81;99273.15;1732083;81;21536;-70
2022/06/02 02:40:58;;;;;;;5.42;4.60;;;;;;;17.27;89.81;99283.23;1743735;81;21560;-70
2022/06/02 02:43:29;;;;;;;5.30;4.83;;;;;;;17.32;89.84;99280.41;1734694;81;20876;-70
2022/06/02 02:46:18;;;;;;;5.03;4.62;;;;;;;17.41;89.66;99276.42;1753101;81;20922;-70
2022/06/02 02:49:15;;;;;;;5.20;4.70;;;;;;;17.46;89.54;99277.41;1743682;81;20955;-71
2022/06/02 02:52:06;;;;;;;5.00;4.62;;;;;;;17.51;89.42;99276.75;1767564;81;20927;-70
2022/06/02 02:54:50;;;;;;;5.53;5.03;;;;;;;17.54;89.13;99279.04;1777064;79;21146;-69
2022/06/02 02:57:53;;;;;;;6.03;4.83;;;;;;;17.54;89.08;99282.55;1782242;80;20927;-70
2022/06/02 03:00:23;;;;;;;5.87;5.37;;;;;;;17.59;89.01;99283.23;1789582;80;20985;-70
2022/06/02 03:03:16;;;;;;;4.90;4.50;;;;;;;17.59;89.05;99292.13;1737939;81;21034;-71
2022/06/02 03:06:20;;;;;;;4.80;4.42;;;;;;;17.62;89.03;99294.91;1769321;80;21513;-71
2022/06/02 03:09:27;;;;;;;5.10;4.70;;;;;;;17.66;89.11;99297.44;1781945;80;21825;-69
2022/06/02 03:12:11;;;;;;;4.20;3.87;;;;;;;17.75;89.20;99306.34;1781729;79;21509;-71
2022/06/02 03:15:09;;;;;;;5.65;4.85;;;;;;;17.86;89.25;99304.81;1785010;79;20883;-70
2022/06/02 03:17:55;;;;;;;5.10;4.47;;;;;;;17.97;89.08;99304.60;1779701;80;20875;-69
2022/06/02 03:20:45;;;;;;;4.67;4.28;;;;;;;18.05;88.87;99303.80;1783168;80;21548;-70
2022/06/02 03:23:47;;;;;;;5.33;4.70;;;;;;;18.15;88.54;99303.28;1781001;80;21780;-70
2022/06/02 03:26:34;;;;;;;5.28;4.78;;;;;;;18.24;88.44;99304.66;1763617;80;21579;-70
2022/06/02 03:29:22;;;;;;;4.70;4.30;;;;;;;18.36;88.57;99303.67;1759845;80;20923;-71
2022/06/02 03:32:27;;;;;;;9.38;5.95;;;;;;;18.55;88.54;99307.74;1782390;80;20970;-71
2022/06/02 03:35:17;;;;;;;4.37;4.08;;;;;;;18.75;88.16;99306.45;1776266;80;21054;-70
2022/06/02 03:37:53;;;;;;;4.17;3.85;;;;;;;18.91;87.42;99308.52;1778940;80;21696;-69
2022/06/02 03:40:53;;;;;;;5.47;4.97;;;;;;;19.01;86.79;99303.92;1785797;80;20958;-71
2022/06/02 03:43:34;;;;;;;4.60;4.25;;;;;;;19.08;86.22;99306.02;1782843;80;21046;-69
2022/06/02 03:46:27;;;;;;;5.55;5.05;;;;;;;19.14;85.56;99298.34;1763330;80;20990;-69
2022/06/02 03:49:22;;;;;;;7.08;5.17;;;;;;;19.16;85.14;99298.13;1767634;80;20994;-71
2022/06/02 03:52:31;;;;;;;6.50;5.05;;;;;;;19.18;84.56;99303.59;1730389;79;22013;-73
2022/06/02 03:55:18;;;;;;;4.90;4.35;;;;;;;19.22;84.21;99299.89;1779295;80;20911;-68
2022/06/02 03:58:00;;;;;;;5.95;5.35;;;;;;;19.26;83.90;99300.56;1752350;80;20967;-70
2022/06/02 04:00:31;;;;;;;8.53;6.15;;;;;;;19.34;83.58;99302.94;1769855;80;20988;-70
2022/06/02 04:03:05;;;;;;;6.55;5.08;;;;;;;19.41;83.21;99299.64;1759867;80;21016;-70
2022/06/02 04:06:01;;;;;;;5.92;5.45;;;;;;;19.45;82.92;99298.11;1765381;78;21133;-70
2022/06/02 04:09:02;;;;;;;6.75;6.08;;;;;;;19.48;82.83;99300.34;1760319;80;20910;-69
2022/06/02 04:15:34;;;;;;;11.18;5.92;;;;;;;19.71;82.68;99303.08;1783606;79;20990;-70
2022/06/02 04:18:10;;;;;;;;;;;;;;;19.85;82.46;99298.28;1694263;84;21002;-70
2022/06/02 04:21:08;;;;;;;7.87;7.00;;;;;;;20.00;82.02;99297.80;1695019;84;22100;-71
2022/06/02 04:24:06;;;;;;;9.00;6.62;;;;;;;20.43;82.47;99299.63;1740583;80;20955;-70
2022/06/02 04:26:58;;;;;;;7.20;6.50;;;;;;;20.97;80.87;99301.50;1759951;80;21416;-70
2022/06/02 04:29:55;;;;;;;6.05;5.35;;;;;;;21.52;79.89;99306.61;1744729;80;20975;-70
2022/06/02 04:33:04;;;;;;;8.73;6.20;;;;;;;22.67;77.71;99306.74;1767483;80;20998;-70
2022/06/02 04:35:54;;;;;;;7.30;5.35;;;;;;;24.04;73.02;99301.55;1773287;80;21255;-71
2022/06/02 04:38:26;;;;;;;8.48;6.35;;;;;;;25.09;68.40;99291.77;1759671;80;20974;-69
2022/06/02 04:41:19;;;;;;;9.85;6.22;;;;;;;25.36;64.37;99302.44;1761522;80;20968;-70
2022/06/02 04:44:01;;;;;;;11.88;6.60;;;;;;;25.36;64.37;99302.44;1759892;80;20939;-70
2022/06/02 04:47:00;;;;;;;6.53;5.85;;;;;;;25.65;63.79;99304.13;1765137;80;20898;-70
2022/06/02 04:49:44;;;;;;;6.37;5.08;;;;;;;26.54;61.26;99298.02;1665384;82;21287;-69
2022/06/02 04:52:25;;;;;;;5.83;5.30;;;;;;;27.29;58.81;99290.01;1767710;80;21657;-70
2022/06/02 04:55:22;;;;;;;5.37;4.87;;;;;;;28.34;55.22;99286.13;1766111;80;21520;-71
2022/06/02 04:57:59;;;;;;;14.83;13.43;;;;;;;29.35;52.13;99275.52;1757093;80;20915;-72
2022/06/02 05:01:03;;;;;;;8.60;7.08;;;;;;;30.56;49.56;99269.80;1757162;80;21425;-71
2022/06/02 05:03:36;;;;;;;6.37;4.50;;;;;;;31.47;46.46;99261.76;1765421;80;21202;-73
2022/06/02 05:06:17;;;;;;;4.45;3.90;;;;;;;32.23;43.65;99266.12;1760588;80;20930;-71
2022/06/02 05:09:03;;;;;;;5.37;4.08;;;;;;;32.35;41.95;99271.05;1779090;80;21496;-71
2022/06/02 05:11:56;;;;;;;4.67;3.87;;;;;;;32.20;40.36;99268.72;1771577;78;21070;-71
2022/06/02 05:14:36;;;;;;;4.47;3.75;;;;;;;31.73;40.15;99260.56;1766796;79;20982;-69
2022/06/02 05:17:21;;;;;;;8.70;3.70;;;;;;;31.51;40.81;99263.33;1756424;80;21904;-72
2022/06/02 05:20:03;;;;;;;5.22;4.30;;;;;;;31.63;40.62;99268.51;1774760;80;21426;-71
2022/06/02 05:22:56;;;;;;;4.72;3.90;;;;;;;31.91;40.31;99259.56;1764244;80;21150;-70
2022/06/02 05:26:10;;;;;;;4.47;3.60;;;;;;;31.98;39.28;99265.98;1771689;80;20930;-70
2022/06/02 05:29:01;;;;;;;4.47;3.87;;;;;;;31.65;39.81;99264.88;1761217;80;21001;-72
2022/06/02 05:32:14;;;;;;;5.08;3.62;;;;;;;30.83;41.55;99271.16;1776572;79;21323;-75
2022/06/02 05:35:11;;;;;;;4.75;3.92;;;;;;;31.15;41.45;99272.41;1765453;80;21027;-72
2022/06/02 05:38:00;;;;;;;4.75;3.60;;;;;;;31.85;40.63;99271.00;1781697;80;20982;-73
2022/06/02 05:40:42;;;;;;;5.78;3.58;;;;;;;32.18;38.94;99269.58;1776726;79;20939;-71
2022/06/02 05:44:06;;;;;;;4.28;3.92;;;;;;;32.00;39.12;99267.88;1770981;80;21460;-71
2022/06/02 05:47:04;;;;;;;4.47;3.50;;;;;;;31.99;39.05;99259.36;1771939;80;21157;-71
2022/06/02 05:49:56;;;;;;;4.75;3.60;;;;;;;31.66;39.37;99271.19;1757033;80;21005;-70
2022/06/02 05:52:41;;;;;;;5.65;3.80;;;;;;;32.04;38.31;99271.07;1765454;80;21049;-70
2022/06/02 05:55:46;;;;;;;4.95;3.50;;;;;;;32.62;37.11;99263.95;1772389;79;21485;-70
2022/06/02 05:58:55;;;;;;;3.95;3.52;;;;;;;33.24;36.27;99263.17;1751300;81;21106;-69
2022/06/02 06:01:42;;;;;;;4.10;3.70;;;;;;;34.13;34.46;99263.81;1745937;80;21469;-74
2022/06/02 06:04:46;;;;;;;3.83;3.50;;;;;;;34.19;33.74;99256.97;1748225;79;20979;-79
2022/06/02 06:07:52;;;;;;;3.75;3.45;;;;;;;34.60;32.87;99266.80;1752158;81;21000;-78
2022/06/02 06:10:52;;;;;;;6.92;3.50;;;;;;;34.54;32.52;99265.36;1754918;81;21627;-70
2022/06/02 06:13:59;;;;;;;3.60;3.30;;;;;;;34.23;33.07;99257.13;1718108;81;20998;-70
2022/06/02 06:16:44;;;;;;;4.80;3.60;;;;;;;34.23;32.81;99252.43;1763152;81;21259;-70
2022/06/02 06:19:41;;;;;;;3.80;3.50;;;;;;;33.79;33.90;99250.89;1759675;79;20971;-74
2022/06/02 06:22:28;;;;;;;3.77;3.47;;;;;;;33.35;33.58;99248.49;1758217;81;20908;-71
2022/06/02 06:25:03;;;;;;;4.40;3.67;;;;;;;33.00;34.09;99246.84;1716988;81;20943;-69
2022/06/02 06:27:41;;;;;;;4.37;3.60;;;;;;;32.86;34.33;99239.54;1753572;81;21532;-71
2022/06/02 06:30:29;;;;;;;5.05;4.03;;;;;;;32.66;34.50;99237.41;1754881;81;21160;-73
2022/06/02 06:33:34;;;;;;;4.28;3.83;;;;;;;31.72;35.23;99235.02;1749301;81;21478;-68
2022/06/02 06:36:35;;;;;;;3.80;3.50;;;;;;;31.17;36.49;99234.99;1749686;81;20975;-70
2022/06/02 06:39:14;;;;;;;3.62;3.33;;;;;;;31.52;36.21;99220.40;1752285;81;20995;-69
2022/06/02 06:42:01;;;;;;;3.87;3.50;;;;;;;31.92;36.14;99225.97;1746177;81;21544;-71
2022/06/02 06:44:39;;;;;;;4.20;3.52;;;;;;;32.30;34.78;99214.77;1773123;81;21155;-68
2022/06/02 06:47:11;;;;;;;3.62;3.30;;;;;;;32.56;34.26;99218.44;1745782;81;21536;-72
2022/06/02 06:50:06;;;;;;;4.22;3.55;;;;;;;32.36;35.23;99212.91;1743789;81;20923;-70
2022/06/02 06:52:47;;;;;;;5.10;3.60;;;;;;;32.40;34.09;99207.59;1743153;81;21497;-69
2022/06/02 06:55:57;;;;;;;3.70;3.37;;;;;;;32.69;33.50;99211.98;1757751;81;20939;-72
2022/06/02 06:58:47;;;;;;;5.05;3.50;;;;;;;32.95;33.14;99229.35;1788688;80;21142;-68
2022/06/02 07:01:47;;;;;;;4.28;3.75;;;;;;;33.17;33.30;99206.91;1789660;79;20978;-70
2022/06/02 07:04:24;;;;;;;3.58;3.30;;;;;;;33.79;32.56;99209.52;1789669;80;21453;-68
2022/06/02 07:07:02;;;;;;;5.35;3.50;;;;;;;34.42;31.91;99210.58;1726679;79;21513;-69
2022/06/02 07:09:34;;;;;;;3.70;3.40;;;;;;;34.84;31.55;99215.05;1756125;80;20943;-72
2022/06/02 07:15:40;;;;;;;6.35;3.50;;;;;;;35.16;31.14;99204.67;1789707;80;21418;-72
2022/06/02 07:18:21;;;;;;;4.08;3.70;;;;;;;35.11;30.90;99202.13;1789899;80;21457;-71
2022/06/02 07:20:57;;;;;;;4.33;3.95;;;;;;;35.36;31.25;99191.95;1788991;80;21421;-72
2022/06/02 07:23:56;;;;;;;4.42;4.08;;;;;;;35.24;30.97;99202.98;1782563;80;20923;-69
2022/06/02 07:26:48;;;;;;;4.85;4.00;;;;;;;34.95;31.69;99199.70;1775410;80;21274;-68
2022/06/02 07:29:57;;;;;;;5.08;4.58;;;;;;;34.79;31.22;99200.06;1739430;82;21666;-70
2022/06/02 07:32:47;;;;;;;;;;;;;;;34.11;31.78;99189.62;1755291;81;20918;-69
2022/06/02 07:36:09;;;;;;;5.70;4.00;;;;;;;34.01;32.06;99194.67;1738525;82;20410;-71
2022/06/02 07:39:31;;;;;;;3.75;3.45;;;;;;;33.67;32.54;99195.61;1738281;82;21485;-67
2022/06/02 07:42:22;;;;;;;4.20;3.80;;;;;;;33.53;32.94;99191.63;1721137;83;21206;-69
2022/06/02 07:44:59;;;;;;;6.10;4.20;;;;;;;33.85;33.62;99183.38;1746166;82;20971;-71
2022/06/02 07:47:34;;;;;;;4.65;3.90;;;;;;;33.66;31.74;99181.56;1746432;82;21050;-69
2022/06/02 07:50:12;;;;;;;4.33;3.95;;;;;;;32.73;33.03;99195.61;1752499;81;20994;-68
2022/06/02 07:53:13;;;;;;;4.30;3.70;;;;;;;31.55;34.78;99190.91;1752372;81;21433;-70
2022/06/02 07:56:07;;;;;;;4.50;4.10;;;;;;;31.28;36.35;99197.09;1747406;81;21142;-68
2022/06/02 07:59:06;;;;;;;4.28;3.92;;;;;;;31.85;35.42;99190.69;1746596;82;20988;-68
2022/06/02 08:02:20;;;;;;;4.03;3.62;;;;;;;31.38;35.85;99196.28;1746517;82;21500;-72
2022/06/02 08:05:28;;;;;;;4.60;4.20;;;;;;;30.83;36.24;99200.33;1746499;82;20950;-68
2022/06/02 08:07:59;;;;;;;4.50;4.10;;;;;;;30.46;37.26;99200.86;1745702;82;20939;-70
2022/06/02 08:10:58;;;;;;;4.92;4.30;;;;;;;30.00;38.12;99210.28;1746391;82;21851;-70
2022/06/02 08:14:00;;;;;;;4.20;3.72;;;;;;;29.85;38.70;99211.39;1746514;82;20923;-71
2022/06/02 08:16:49;;;;;;;4.85;3.83;;;;;;;29.53;39.34;99205.91;1746533;82;20981;-68
2022/06/02 08:19:36;;;;;;;4.42;4.03;;;;;;;30.97;37.69;99210.20;1746541;81;20990;-67
2022/06/02 08:22:05;;;;;;;6.50;4.30;;;;;;;32.87;34.45;99205.36;1746545;82;20999;-68
2022/06/02 08:24:40;;;;;;;5.00;3.72;;;;;;;34.62;31.57;99203.77;1746483;82;21107;-68
2022/06/02 08:27:34;;;;;;;6.12;3.80;;;;;;;35.20;31.29;99192.34;1746550;82;21477;-68
2022/06/02 08:30:27;;;;;;;4.25;3.85;;;;;;;35.04;30.46;99212.86;1746290;82;20947;-68
2022/06/02 08:33:28;;;;;;;4.75;3.90;;;;;;;33.75;31.99;99208.56;1746623;82;20931;-68
2022/06/02 08:36:12;;;;;;;3.58;3.35;;;;;;;32.81;33.15;99207.20;1746510;82;21051;-68
2022/06/02 08:39:10;;;;;;;6.15;4.15;;;;;;;31.66;35.12;99221.70;1746419;82;21261;-68
2022/06/02 08:42:00;;;;;;;;;;;;;;;30.80;36.66;99211.92;1741882;82;20943;-68
2022/06/02 08:44:53;;;;;;;4.50;4.10;;;;;;;30.31;37.58;99210.75;1746552;82;20429;-68
2022/06/02 08:47:52;;;;;;;5.10;4.30;;;;;;;30.44;38.10;99204.47;1663582;82;21548;-68
2022/06/02 08:51:14;;;;;;;4.95;4.47;;;;;;;30.32;38.80;99216.47;1736734;82;20876;-67
2022/06/02 08:54:11;;;;;;;5.90;4.42;;;;;;;29.83;38.98;99213.60;1746484;82;21147;-71
2022/06/02 08:57:21;;;;;;;4.33;3.92;;;;;;;29.17;40.54;99205.66;1715663;82;20920;-66
2022/06/02 09:00:23;;;;;;;4.35;3.95;;;;;;;29.87;40.34;99206.41;1738232;82;20857;-68
2022/06/02 09:03:25;;;;;;;5.05;4.20;;;;;;;32.11;37.12;99196.32;1732483;82;21536;-67
2022/06/02 09:06:37;;;;;;;6.70;4.33;;;;;;;33.24;34.21;99204.50;1738287;82;20987;-68
2022/06/02 09:09:31;;;;;;;4.20;3.85;;;;;;;32.50;34.21;99196.28;1729317;82;21199;-68
2022/06/02 09:12:36;;;;;;;7.30;4.22;;;;;;;31.57;36.12;99193.36;1708214;82;21102;-68
2022/06/02 09:15:42;;;;;;;5.75;4.10;;;;;;;31.08;37.12;99201.13;1730993;82;21510;-68
2022/06/02 09:18:51;;;;;;;4.62;4.30;;;;;;;30.26;37.86;99205.38;1738475;82;21079;-68
2022/06/02 09:21:35;;;;;;;6.90;4.65;;;;;;;29.88;38.93;99206.09;1737302;82;21474;-67
2022/06/02 09:24:27;;;;;;;5.70;4.05;;;;;;;30.22;39.52;99200.22;1738428;82;21569;-67
2022/06/02 09:27:19;;;;;;;6.72;4.78;;;;;;;30.47;38.89;99198.93;1738145;82;20928;-71
2022/06/02 09:29:59;;;;;;;6.15;4.47;;;;;;;30.10;39.87;99199.93;1738120;82;20986;-71
2022/06/02 09:33:33;;;;;;;6.70;5.08;;;;;;;29.54;40.44;99206.95;1738155;82;20955;-67
2022/06/02 09:35:39;;;;;;;5.47;4.75;;;;;;;29.51;40.94;99203.48;1725867;82;20911;-68
2022/06/02 09:38:43;;;;;;;4.92;4.20;;;;;;;30.98;39.21;99193.95;1689557;82;21773;-67
2022/06/02 09:41:24;;;;;;;5.25;4.60;;;;;;;32.18;37.59;99196.66;1738220;82;21014;-69
2022/06/02 09:44:30;;;;;;;6.12;4.45;;;;;;;33.27;35.69;99179.05;1709996;82;20999;-68
2022/06/02 09:47:18;;;;;;;5.20;4.80;;;;;;;33.70;34.39;99176.21;1729011;82;21429;-69
2022/06/02 09:50:18;;;;;;;4.85;4.45;;;;;;;32.86;35.54;99173.43;1741695;82;20998;-68
2022/06/02 09:53:15;;;;;;;5.25;4.42;;;;;;;31.99;37.18;99174.08;1737361;82;21175;-68
2022/06/02 09:56:06;;;;;;;7.87;5.25;;;;;;;31.02;38.90;99170.25;1721321;82;28234;-69
2022/06/02 09:59:21;;;;;;;5.40;4.92;;;;;;;29.94;41.33;99179.40;1738289;82;20924;-68
2022/06/02 10:02:05;;;;;;;5.47;5.03;;;;;;;29.13;42.60;99182.14;1738436;82;21481;-71
2022/06/02 10:04:54;;;;;;;6.50;5.90;;;;;;;28.30;45.20;99180.58;1738518;82;20979;-71
2022/06/02 10:07:42;;;;;;;8.15;5.97;;;;;;;28.30;45.20;99180.58;1738236;82;21337;-68
2022/06/02 10:10:31;;;;;;;6.08;5.53;;;;;;;28.18;45.37;99175.27;1738251;82;20880;-67
2022/06/02 10:13:31;;;;;;;6.87;6.28;;;;;;;28.11;45.80;99169.59;1738209;82;20924;-67
2022/06/02 10:16:29;;;;;;;7.05;5.67;;;;;;;28.03;45.47;99168.87;1732847;82;20947;-69
2022/06/02 10:19:37;;;;;;;7.33;5.65;;;;;;;27.94;45.51;99162.40;1738202;82;20892;-68
2022/06/02 10:22:26;;;;;;;5.92;5.42;;;;;;;28.03;44.63;99165.31;1738414;82;21253;-69
2022/06/02 10:25:24;;;;;;;9.80;9.03;;;;;;;28.09;44.06;99169.63;1738121;82;20986;-68
2022/06/02 10:28:08;;;;;;;6.45;5.92;;;;;;;27.96;44.04;99168.38;1737888;82;21074;-67
2022/06/02 10:30:53;;;;;;;6.90;6.17;;;;;;;27.86;44.08;99156.20;1738146;82;21431;-69
2022/06/02 10:33:31;;;;;;;6.50;5.90;;;;;;;27.64;44.73;99162.70;1738289;82;21071;-68
2022/06/02 10:36:18;;;;;;;6.85;6.22;;;;;;;27.47;45.55;99156.88;1738310;82;21253;-69
2022/06/02 10:39:05;;;;;;;6.83;6.33;;;;;;;27.47;46.23;99152.78;1737790;82;20951;-68
2022/06/02 10:42:00;;;;;;;7.03;5.90;;;;;;;27.45;46.57;99150.89;1738244;82;21036;-68
2022/06/02 10:44:53;;;;;;;6.25;5.65;;;;;;;27.37;46.58;99148.75;1709963;82;20915;-67
2022/06/02 10:47:47;;;;;;;6.62;6.03;;;;;;;27.32;46.70;99146.86;1709240;82;20986;-68
2022/06/02 10:50:31;;;;;;;10.18;5.70;;;;;;;27.28;46.90;99145.00;1710006;82;21171;-66
2022/06/02 10:53:30;;;;;;;8.05;7.35;;;;;;;27.30;46.56;99138.69;1709578;82;21006;-69
2022/06/02 10:56:35;;;;;;;6.65;6.05;;;;;;;27.35;46.94;99143.56;1708133;82;20939;-68
2022/06/02 10:59:33;;;;;;;5.92;5.42;;;;;;;27.38;47.13;99132.61;1709832;82;21002;-69
2022/06/02 11:02:22;;;;;;;5.87;5.47;;;;;;;27.45;47.33;99120.85;1733072;82;21177;-67
2022/06/02 11:05:47;;;;;;;7.05;6.45;;;;;;;27.61;47.25;99107.84;1738138;82;21026;-67
2022/06/02 11:09:04;;;;;;;5.55;5.05;;;;;;;27.71;47.29;99114.02;1729082;82;20936;-71
2022/06/02 11:11:48;;;;;;;5.27;4.87;;;;;;;27.83;44.84;99104.84;1688366;82;21000;-68
2022/06/02 11:14:40;;;;;;;4.83;4.53;;;;;;;27.83;44.84;99104.84;1709937;82;21617;-71
2022/06/02 11:17:47;;;;;;;6.90;5.30;;;;;;;27.70;44.93;99117.84;1709602;82;21430;-69
2022/06/02 11:20:49;;;;;;;6.00;4.60;;;;;;;27.46;45.41;99115.09;1733940;82;21173;-70
2022/06/02 11:23:40;;;;;;;5.50;5.10;;;;;;;27.27;46.06;99116.87;1738025;82;20990;-67
2022/06/02 11:26:40;;;;;;;5.12;4.10;;;;;;;27.17;46.13;99110.69;1738234;82;20992;-68
2022/06/02 11:29:38;;;;;;;5.60;4.47;;;;;;;27.05;46.21;99120.63;1738120;82;20975;-67
2022/06/02 11:32:32;;;;;;;4.53;4.12;;;;;;;27.05;45.84;99129.37;1737708;82;20952;-67
2022/06/02 11:35:37;;;;;;;5.17;4.00;;;;;;;27.03;45.69;99132.39;1738307;82;21133;-67
2022/06/02 11:38:25;;;;;;;4.87;4.33;;;;;;;26.99;45.46;99128.59;1737669;82;21446;-68
2022/06/02 11:41:12;;;;;;;6.12;4.33;;;;;;;26.94;46.01;99158.11;1738280;82;21019;-68
2022/06/02 11:44:03;;;;;;;4.53;3.02;;;;;;;26.89;46.54;99169.06;1695083;82;20911;-69
2022/06/02 11:46:48;;;;;;;3.00;2.70;;;;;;;26.73;45.56;99152.50;1710050;82;21002;-65
2022/06/02 11:49:44;;;;;;;3.60;2.80;;;;;;;26.34;44.48;99153.81;1729042;82;21155;-71
2022/06/02 11:52:28;;;;;;;4.47;3.12;;;;;;;25.92;44.78;99157.50;1738271;82;20983;-68
2022/06/02 11:55:35;;;;;;;6.97;3.12;;;;;;;25.63;46.14;99173.64;1737664;82;21015;-70
2022/06/02 11:58:24;;;;;;;3.67;3.20;;;;;;;25.45;45.34;99180.17;1736128;81;21530;-67
2022/06/02 12:01:17;;;;;;;4.70;4.00;;;;;;;25.24;45.45;99171.77;1733407;82;21078;-68
2022/06/02 12:04:16;;;;;;;5.97;4.20;;;;;;;25.04;45.89;99179.37;1733467;82;21165;-68
2022/06/02 12:07:18;;;;;;;5.85;3.83;;;;;;;24.81;47.51;99178.53;1726685;82;20967;-68
2022/06/02 12:10:08;;;;;;;9.03;4.42;;;;;;;24.36;49.07;99176.47;1733604;82;21059;-69
2022/06/02 12:13:07;;;;;;;5.33;4.15;;;;;;;24.06;50.38;99188.02;1733365;82;20952;-70
2022/06/02 12:16:16;;;;;;;9.28;4.60;;;;;;;23.95;51.59;99194.47;1733521;82;20884;-70
2022/06/02 12:18:58;;;;;;;;;;;;;;;23.79;52.48;99203.61;1736219;82;21145;-69
2022/06/02 12:22:02;;;;;;;5.97;3.87;;;;;;;23.51;54.06;99212.94;1725826;82;20112;-70
2022/06/02 12:24:40;;;;;;;4.10;3.70;;;;;;;23.19;55.56;99203.95;1733501;82;20940;-67
2022/06/02 12:27:25;;;;;;;7.47;4.28;;;;;;;22.63;57.17;99201.25;1733489;82;21505;-67
2022/06/02 12:30:40;;;;;;;7.22;4.25;;;;;;;22.22;58.44;99197.19;1723109;82;21070;-67
2022/06/02 12:33:19;;;;;;;8.28;4.17;;;;;;;21.95;59.81;99194.96;1738283;82;21159;-68
2022/06/02 12:36:00;;;;;;;5.03;4.28;;;;;;;21.87;60.81;99193.50;1738217;82;20948;-68
2022/06/02 12:38:57;;;;;;;6.17;4.53;;;;;;;21.87;61.22;99210.28;1734088;82;21391;-69
2022/06/02 12:41:37;;;;;;;5.78;4.33;;;;;;;21.91;61.41;99204.64;1672658;85;21537;-70
2022/06/02 12:44:40;;;;;;;6.45;4.00;;;;;;;21.88;62.15;99211.38;1669868;85;21165;-68
2022/06/02 12:47:49;;;;;;;8.73;4.58;;;;;;;21.90;63.46;99192.19;1722007;82;21527;-69
2022/06/02 12:50:53;;;;;;;6.95;4.55;;;;;;;21.86;64.16;99187.80;1727917;83;20999;-70
2022/06/02 12:53:54;;;;;;;7.05;4.40;;;;;;;21.86;65.19;99168.84;1679218;83;20983;-68
2022/06/02 12:56:55;;;;;;;8.08;5.42;;;;;;;22.01;66.27;99162.27;1725350;83;21019;-70
2022/06/02 12:59:53;;;;;;;6.83;5.00;;;;;;;22.24;67.05;99163.88;1728180;83;20940;-70
2022/06/02 13:03:00;;;;;;;10.85;4.60;;;;;;;22.48;66.47;99167.14;1728061;82;21241;-69
2022/06/02 13:05:46;;;;;;;7.40;4.67;;;;;;;22.64;66.37;99163.02;1727988;82;20877;-71
2022/06/02 13:09:05;;;;;;;6.47;4.85;;;;;;;22.72;65.91;99197.81;1728161;82;22214;-72
2022/06/02 13:11:47;;;;;;;;;;;;;;;22.80;65.88;99188.40;1730540;83;21535;-69
2022/06/02 13:14:41;;;;;;;9.15;4.53;;;;;;;22.95;65.60;99206.17;1728047;82;20096;-69
2022/06/02 13:17:49;;;;;;;5.30;4.78;;;;;;;23.07;65.27;99231.23;1699375;83;21122;-68
2022/06/02 13:20:36;;;;;;;5.30;3.70;;;;;;;23.18;65.92;99227.55;1724872;83;20991;-69
2022/06/02 13:23:12;;;;;;;9.75;4.30;;;;;;;23.30;65.69;99232.81;1727989;83;20932;-67
2022/06/02 13:26:01;;;;;;;4.25;3.85;;;;;;;23.36;65.82;99230.41;1727994;83;20935;-71
2022/06/02 13:29:10;;;;;;;4.12;3.72;;;;;;;23.44;65.23;99244.09;1728145;83;21005;-67
2022/06/02 13:32:07;;;;;;;7.03;4.58;;;;;;;23.45;64.43;99249.25;1734795;82;21249;-68
2022/06/02 13:35:06;;;;;;;5.42;4.30;;;;;;;23.44;64.81;99254.95;1738233;82;21513;-70
2022/06/02 13:38:05;;;;;;;5.10;4.45;;;;;;;23.55;65.61;99255.30;1738474;82;21536;-69
2022/06/02 13:40:56;;;;;;;5.78;5.22;;;;;;;23.75;65.72;99250.04;1738189;82;21533;-69
2022/06/02 13:44:02;;;;;;;6.83;6.22;;;;;;;23.87;64.66;99261.52;1738314;82;20998;-67